Time;durP1;ratioP1;P1;durP2;ratioP2;P2;SDS_P1;SDS_P2;PMS_P1;PMS_P2;Temp;Humidity;BMP_temperature;BMP_pressure;BME280_temperature;BME280_humidity;BME280_pressure;Samples;Min_cycle;Max_cycle;Signal;HPM_P1;HPM_P2
2023/11/19 00:02:14;;;;;;;;;;;;;;;2.25;82.75;101862.72;106873;1256;123881;-87
2023/11/19 00:04:40;;;;;;;;;;;;;;;2.26;82.88;101855.31;106560;1256;73893;-78
2023/11/19 00:07:07;;;;;;;;;;;;;;;2.24;82.73;101851.21;106679;1256;64673;-79
2023/11/19 00:09:36;;;;;;;;;;;;;;;2.23;82.73;101854.20;106602;1257;124073;-79
2023/11/19 00:12:06;;;;;;;;;;;;;;;2.23;82.85;101854.76;107020;1256;60351;-79
2023/11/19 00:14:33;;;;;;;;;;;;;;;2.22;82.88;101850.71;106501;1257;123831;-80
2023/11/19 00:16:59;;;;;;;;;;;;;;;2.22;82.84;101847.60;106813;1256;72571;-79
2023/11/19 00:19:26;;;;;;;;;;;;;;;2.23;82.83;101847.11;106661;1256;65946;-89
2023/11/19 00:21:53;;;;;;;;;;;;;;;2.22;82.85;101845.67;106350;1256;123942;-87
2023/11/19 00:24:20;;;;;;;;;;;;;;;2.22;82.80;101845.50;106573;1256;60384;-87
2023/11/19 00:26:47;;;;;;;;;;;;;;;2.20;82.77;101839.84;106732;1257;125463;-87
2023/11/19 00:29:13;;;;;;;;;;;;;;;2.19;82.71;101834.90;106627;1257;73875;-79
2023/11/19 00:31:40;;;;;;;;;;;;;;;2.17;82.73;101830.02;106771;1256;65043;-86
2023/11/19 00:34:07;;;;;;;;;;;;;;;2.16;82.68;101834.09;106483;1259;125305;-78
2023/11/19 00:36:33;;;;;;;;;;;;;;;2.15;82.72;101834.77;106780;1256;60442;-77
2023/11/19 00:39:00;;;;;;;;;;;;;;;2.16;82.75;101834.33;106491;1256;124564;-77
2023/11/19 00:41:26;;;;;;;;;;;;;;;2.17;82.86;101836.83;106561;1257;73561;-78
2023/11/19 00:43:53;;;;;;;;;;;;;;;2.19;82.86;101835.05;106521;1261;66286;-78
2023/11/19 00:46:20;;;;;;;;;;;;;;;2.21;82.96;101832.28;106441;1260;124706;-79
2023/11/19 00:48:47;;;;;;;;;;;;;;;2.26;82.95;101829.15;106595;1260;60364;-79
2023/11/19 00:51:14;;;;;;;;;;;;;;;2.29;83.00;101825.92;106484;1259;125330;-79
2023/11/19 00:53:40;;;;;;;;;;;;;;;2.31;82.89;101826.99;106605;1259;73951;-79
2023/11/19 00:56:07;;;;;;;;;;;;;;;2.32;82.71;101820.81;106690;1256;66264;-87
2023/11/19 00:58:34;;;;;;;;;;;;;;;2.32;82.76;101819.06;106716;1256;124267;-87
2023/11/19 01:01:00;;;;;;;;;;;;;;;2.31;82.55;101818.17;106829;1257;60439;-87
2023/11/19 01:03:27;;;;;;;;;;;;;;;2.31;82.70;101813.28;106739;1257;124364;-87
2023/11/19 01:05:54;;;;;;;;;;;;;;;2.31;82.63;101811.92;106682;1256;73918;-87
2023/11/19 01:08:20;;;;;;;;;;;;;;;2.31;82.61;101808.41;106625;1257;124702;-86
2023/11/19 01:10:47;;;;;;;;;;;;;;;2.31;82.44;101812.04;106621;1257;72768;-78
2023/11/19 01:13:14;;;;;;;;;;;;;;;2.32;82.58;101811.84;106699;1259;60466;-78
2023/11/19 01:15:41;;;;;;;;;;;;;;;2.32;82.46;101808.83;106596;1257;124540;-78
2023/11/19 01:18:08;;;;;;;;;;;;;;;2.32;82.56;101801.02;106184;1259;74907;-79
2023/11/19 01:20:35;;;;;;;;;;;;;;;2.31;82.41;101794.78;106515;1256;124946;-86
2023/11/19 01:23:02;;;;;;;;;;;;;;;2.30;82.39;101791.39;106837;1259;72600;-87
2023/11/19 01:25:29;;;;;;;;;;;;;;;2.28;82.39;101786.04;106568;1256;60586;-86
2023/11/19 01:27:58;;;;;;;;;;;;;;;2.28;82.34;101781.86;106517;1257;124370;-79
2023/11/19 01:30:24;;;;;;;;;;;;;;;2.27;82.45;101783.21;106880;1255;73882;-87
2023/11/19 01:32:51;;;;;;;;;;;;;;;2.28;82.34;101781.85;106698;1259;124382;-87
2023/11/19 01:35:18;;;;;;;;;;;;;;;2.27;82.39;101780.79;106507;1257;72834;-87
2023/11/19 01:37:44;;;;;;;;;;;;;;;2.24;82.17;101779.88;106537;1257;60433;-78
2023/11/19 01:40:11;;;;;;;;;;;;;;;2.21;82.12;101779.80;106604;1256;125213;-85
2023/11/19 01:42:38;;;;;;;;;;;;;;;2.20;82.23;101777.13;106704;1256;73886;-85
2023/11/19 01:45:08;;;;;;;;;;;;;;;2.21;82.32;101772.48;106501;1256;124741;-85
2023/11/19 01:47:34;;;;;;;;;;;;;;;2.19;82.35;101768.37;106232;1257;71913;-85
2023/11/19 01:50:01;;;;;;;;;;;;;;;2.15;82.01;101761.17;106133;1259;60461;-77
2023/11/19 01:52:28;;;;;;;;;;;;;;;2.10;82.12;101752.31;105999;1257;125282;-77
2023/11/19 01:54:55;;;;;;;;;;;;;;;2.09;82.20;101752.39;106045;1257;73639;-77
2023/11/19 01:57:22;;;;;;;;;;;;;;;2.06;82.12;101750.83;106000;1256;123898;-83
2023/11/19 01:59:50;;;;;;;;;;;;;;;2.05;82.28;101749.84;105957;1256;72722;-83
2023/11/19 02:02:20;;;;;;;;;;;;;;;2.02;82.17;101744.58;106073;1259;122590;-84
2023/11/19 02:04:48;;;;;;;;;;;;;;;1.99;82.17;101739.21;106174;1259;60375;-84
2023/11/19 02:07:17;;;;;;;;;;;;;;;1.95;82.14;101735.40;106000;1259;73918;-77
2023/11/19 02:09:44;;;;;;;;;;;;;;;1.90;82.18;101733.86;106115;1259;123554;-85
2023/11/19 02:12:13;;;;;;;;;;;;;;;1.85;82.11;101728.73;106164;1259;71329;-77
2023/11/19 02:14:40;;;;;;;;;;;;;;;1.80;82.17;101717.99;105900;1256;124234;-78
2023/11/19 02:17:06;;;;;;;;;;;;;;;1.75;82.06;101711.44;106024;1257;60677;-84
2023/11/19 02:19:33;;;;;;;;;;;;;;;1.71;82.05;101698.34;106564;1256;73899;-85
2023/11/19 02:22:00;;;;;;;;;;;;;;;1.69;82.22;101694.52;106553;1257;125046;-79
2023/11/19 02:24:27;;;;;;;;;;;;;;;1.68;82.28;101692.87;106567;1257;72678;-79
2023/11/19 02:27:14;;;;;;;;;;;;;;;1.63;82.29;101685.77;106610;1257;124464;-86
2023/11/19 02:29:40;;;;;;;;;;;;;;;1.60;82.34;101678.44;106644;1256;61147;-86
2023/11/19 02:32:09;;;;;;;;;;;;;;;1.60;82.32;101672.05;106690;1256;73482;-85
2023/11/19 02:34:35;;;;;;;;;;;;;;;1.63;82.48;101668.48;106641;1259;65857;-85
2023/11/19 02:37:02;;;;;;;;;;;;;;;1.65;82.37;101660.64;106587;1256;72730;-85
2023/11/19 02:39:29;;;;;;;;;;;;;;;1.63;82.35;101653.94;106612;1258;124189;-85
2023/11/19 02:41:55;;;;;;;;;;;;;;;1.60;82.33;101652.01;106640;1259;60434;-85
2023/11/19 02:44:23;;;;;;;;;;;;;;;1.58;82.40;101648.89;106540;1257;124404;-85
2023/11/19 02:46:49;;;;;;;;;;;;;;;1.56;82.29;101650.27;106660;1257;65135;-85
2023/11/19 02:49:16;;;;;;;;;;;;;;;1.52;82.30;101648.98;106555;1260;72647;-84
2023/11/19 02:51:43;;;;;;;;;;;;;;;1.49;82.27;101649.98;106414;1261;124403;-84
2023/11/19 02:54:09;;;;;;;;;;;;;;;1.45;82.11;101647.23;106572;1259;61335;-84
2023/11/19 02:56:37;;;;;;;;;;;;;;;1.39;82.27;101650.94;106312;1259;124587;-78
2023/11/19 02:59:11;;;;;;;;;;;;;;;1.34;82.20;101650.92;106719;1255;64972;-84
2023/11/19 03:01:43;;;;;;;;;;;;;;;1.32;82.35;101643.80;106006;1261;72701;-77
2023/11/19 03:04:12;;;;;;;;;;;;;;;1.27;82.23;101639.98;105952;1257;124536;-86
2023/11/19 03:06:38;;;;;;;;;;;;;;;1.26;82.45;101632.76;105948;1260;61314;-84
2023/11/19 03:09:10;;;;;;;;;;;;;;;1.24;82.36;101627.65;106037;1258;124435;-78
2023/11/19 03:11:37;;;;;;;;;;;;;;;1.22;82.47;101620.03;106800;1255;65127;-79
2023/11/19 03:14:03;;;;;;;;;;;;;;;1.17;82.62;101616.58;106649;1256;70408;-79
2023/11/19 03:16:30;;;;;;;;;;;;;;;1.14;82.44;101612.33;106516;1256;124817;-77
2023/11/19 03:18:56;;;;;;;;;;;;;;;1.10;82.51;101611.55;105899;1259;61296;-77
2023/11/19 03:21:29;;;;;;;;;;;;;;;1.07;82.45;101605.46;105820;1259;125037;-84
2023/11/19 03:23:56;;;;;;;;;;;;;;;1.07;82.69;101600.38;106137;1259;66291;-77
2023/11/19 03:26:22;;;;;;;;;;;;;;;1.06;82.54;101598.24;105964;1261;124549;-79
2023/11/19 03:28:49;;;;;;;;;;;;;;;1.05;82.72;101595.21;106646;1256;61375;-84
2023/11/19 03:31:15;;;;;;;;;;;;;;;1.04;82.60;101589.30;106504;1256;61362;-77
2023/11/19 03:33:42;;;;;;;;;;;;;;;1.03;82.49;101589.02;106517;1256;124857;-83
2023/11/19 03:36:09;;;;;;;;;;;;;;;1.01;82.55;101582.00;106102;1258;64919;-83
2023/11/19 03:38:36;;;;;;;;;;;;;;;0.99;82.64;101579.94;106205;1257;124913;-85
2023/11/19 03:41:12;;;;;;;;;;;;;;;0.96;82.56;101582.34;106744;1257;61362;-84
2023/11/19 03:43:39;;;;;;;;;;;;;;;0.93;82.57;101578.98;106673;1257;59816;-86
2023/11/19 03:46:17;;;;;;;;;;;;;;;0.90;82.62;101575.28;106671;1261;124498;-85
2023/11/19 03:48:43;;;;;;;;;;;;;;;0.87;82.44;101569.65;106742;1257;65877;-86
2023/11/19 03:51:11;;;;;;;;;;;;;;;0.83;82.61;101560.00;106645;1256;125300;-85
2023/11/19 03:53:38;;;;;;;;;;;;;;;0.78;82.58;101556.23;106749;1255;59272;-86
2023/11/19 03:56:05;;;;;;;;;;;;;;;0.72;82.53;101546.78;106614;1259;61317;-84
2023/11/19 03:58:31;;;;;;;;;;;;;;;0.71;82.56;101546.35;106406;1257;124894;-83
2023/11/19 04:00:58;;;;;;;;;;;;;;;0.71;82.59;101545.26;106675;1259;65985;-83
2023/11/19 04:03:24;;;;;;;;;;;;;;;0.72;82.82;101541.91;106454;1260;124678;-86
2023/11/19 04:05:51;;;;;;;;;;;;;;;0.72;82.79;101532.92;106721;1260;61254;-84
2023/11/19 04:08:17;;;;;;;;;;;;;;;0.72;82.79;101524.83;106601;1257;125010;-84
2023/11/19 04:10:44;;;;;;;;;;;;;;;0.71;82.79;101515.57;106602;1257;74727;-84
2023/11/19 04:13:10;;;;;;;;;;;;;;;0.71;82.99;101516.31;106588;1260;65518;-84
2023/11/19 04:15:37;;;;;;;;;;;;;;;0.72;82.73;101512.20;106489;1259;124839;-84
2023/11/19 04:18:04;;;;;;;;;;;;;;;0.73;82.83;101516.08;106653;1259;61201;-85
2023/11/19 04:20:31;;;;;;;;;;;;;;;0.73;82.62;101512.98;106691;1255;124897;-78
2023/11/19 04:23:00;;;;;;;;;;;;;;;0.75;82.82;101504.13;106690;1256;74789;-83
2023/11/19 04:25:27;;;;;;;;;;;;;;;0.76;82.66;101492.00;106607;1260;65004;-87
2023/11/19 04:27:53;;;;;;;;;;;;;;;0.78;82.74;101482.98;106632;1270;123330;-87
2023/11/19 04:30:20;;;;;;;;;;;;;;;0.80;82.75;101479.64;106816;1259;61678;-86
2023/11/19 04:32:48;;;;;;;;;;;;;;;0.81;82.74;101476.59;106614;1260;125118;-87
2023/11/19 04:35:15;;;;;;;;;;;;;;;0.83;82.74;101478.30;106801;1257;74563;-87
2023/11/19 04:37:41;;;;;;;;;;;;;;;0.87;82.72;101478.58;106708;1257;66225;-84
2023/11/19 04:40:09;;;;;;;;;;;;;;;0.88;82.72;101475.08;106593;1259;123934;-78
2023/11/19 04:42:36;;;;;;;;;;;;;;;0.87;82.67;101467.58;106693;1260;61340;-80
2023/11/19 04:45:05;;;;;;;;;;;;;;;0.89;82.71;101458.69;106548;1259;124284;-80
2023/11/19 04:47:32;;;;;;;;;;;;;;;0.87;82.54;101445.74;106677;1256;73415;-80
2023/11/19 04:49:59;;;;;;;;;;;;;;;0.85;82.61;101439.91;106629;1262;66294;-80
2023/11/19 04:52:26;;;;;;;;;;;;;;;0.83;82.51;101438.17;106543;1257;123777;-79
2023/11/19 04:54:52;;;;;;;;;;;;;;;0.79;82.51;101434.28;106594;1260;59613;-79
2023/11/19 04:57:19;;;;;;;;;;;;;;;0.77;82.58;101433.50;106466;1257;123744;-79
2023/11/19 04:59:46;;;;;;;;;;;;;;;0.77;82.53;101427.92;106641;1256;74586;-81
2023/11/19 05:02:13;;;;;;;;;;;;;;;0.74;82.61;101425.30;106392;1260;125459;-86
2023/11/19 05:04:44;;;;;;;;;;;;;;;0.71;82.39;101423.19;106737;1258;72675;-83
2023/11/19 05:07:10;;;;;;;;;;;;;;;0.69;82.61;101426.48;106597;1257;61340;-78
2023/11/19 05:09:37;;;;;;;;;;;;;;;0.67;82.79;101430.65;106608;1258;124380;-79
2023/11/19 05:12:04;;;;;;;;;;;;;;;0.64;82.53;101427.45;106522;1260;74771;-79
2023/11/19 05:14:30;;;;;;;;;;;;;;;0.61;82.71;101422.77;106466;1263;124023;-79
2023/11/19 05:16:57;;;;;;;;;;;;;;;0.59;82.73;101426.02;106639;1259;72694;-86
2023/11/19 05:19:23;;;;;;;;;;;;;;;0.55;82.48;101424.42;106765;1260;61193;-87
2023/11/19 05:21:52;;;;;;;;;;;;;;;0.51;82.55;101422.88;106613;1258;122898;-86
2023/11/19 05:24:19;;;;;;;;;;;;;;;0.47;82.57;101421.55;106761;1257;72637;-85
2023/11/19 05:26:46;;;;;;;;;;;;;;;0.43;82.64;101418.67;106632;1259;124015;-79
2023/11/19 05:29:13;;;;;;;;;;;;;;;0.38;82.61;101414.95;106748;1260;71390;-87
2023/11/19 05:31:40;;;;;;;;;;;;;;;0.33;82.58;101411.45;106715;1260;61231;-87
2023/11/19 05:34:07;;;;;;;;;;;;;;;0.27;82.60;101401.16;106516;1260;124341;-85
2023/11/19 05:36:33;;;;;;;;;;;;;;;0.23;82.65;101396.02;106571;1258;73393;-85
2023/11/19 05:39:00;;;;;;;;;;;;;;;0.17;82.55;101390.94;106562;1260;124842;-89
2023/11/19 05:41:27;;;;;;;;;;;;;;;0.12;82.77;101385.20;106745;1258;72506;-90
2023/11/19 05:43:53;;;;;;;;;;;;;;;0.07;82.82;101381.54;106897;1255;61343;-89
2023/11/19 05:46:20;;;;;;;;;;;;;;;0.03;82.82;101372.61;106640;1255;124388;-89
2023/11/19 05:48:47;;;;;;;;;;;;;;;0.01;82.86;101367.24;106822;1260;74765;-89
2023/11/19 05:51:15;;;;;;;;;;;;;;;-0.02;82.90;101365.80;106602;1259;124640;-89
2023/11/19 05:53:41;;;;;;;;;;;;;;;-0.04;83.03;101363.13;106815;1260;72623;-86
2023/11/19 05:56:09;;;;;;;;;;;;;;;-0.07;83.11;101365.63;106645;1257;61355;-86
2023/11/19 05:58:37;;;;;;;;;;;;;;;-0.09;83.24;101365.32;106776;1257;60032;-86
2023/11/19 06:01:04;;;;;;;;;;;;;;;-0.10;83.08;101360.20;106731;1267;75388;-86
2023/11/19 06:03:30;;;;;;;;;;;;;;;-0.13;83.04;101357.75;106570;1257;124836;-86
2023/11/19 06:05:57;;;;;;;;;;;;;;;-0.15;83.16;101355.17;106658;1260;72404;-85
2023/11/19 06:08:24;;;;;;;;;;;;;;;-0.16;83.23;101355.04;106428;1257;124786;-84
2023/11/19 06:10:51;;;;;;;;;;;;;;;-0.18;83.27;101352.14;106523;1262;61184;-87
2023/11/19 06:13:17;;;;;;;;;;;;;;;-0.21;83.27;101352.47;106653;1260;74687;-88
2023/11/19 06:15:44;;;;;;;;;;;;;;;-0.23;83.30;101353.69;106602;1259;124666;-88
2023/11/19 06:18:14;;;;;;;;;;;;;;;-0.26;83.22;101346.75;106641;1260;72735;-87
2023/11/19 06:20:41;;;;;;;;;;;;;;;-0.28;83.29;101344.70;106623;1258;124928;-87
2023/11/19 06:23:07;;;;;;;;;;;;;;;-0.29;83.58;101346.15;106633;1260;61358;-87
2023/11/19 06:25:35;;;;;;;;;;;;;;;-0.30;83.51;101341.77;106741;1259;73522;-88
2023/11/19 06:28:01;;;;;;;;;;;;;;;-0.31;83.43;101335.81;106620;1257;124570;-85
2023/11/19 06:30:29;;;;;;;;;;;;;;;-0.32;83.42;101330.77;106695;1257;72698;-86
2023/11/19 06:32:56;;;;;;;;;;;;;;;-0.31;83.56;101327.18;106776;1254;126477;-85
2023/11/19 06:35:23;;;;;;;;;;;;;;;-0.31;83.49;101327.70;106762;1256;61332;-86
2023/11/19 06:37:49;;;;;;;;;;;;;;;-0.30;83.65;101325.73;106827;1260;73404;-87
2023/11/19 06:40:16;;;;;;;;;;;;;;;-0.29;83.64;101324.41;106769;1257;124600;-86
2023/11/19 06:42:43;;;;;;;;;;;;;;;-0.28;83.54;101326.61;106726;1257;72671;-86
2023/11/19 06:45:09;;;;;;;;;;;;;;;-0.26;83.64;101325.54;106870;1259;125116;-86
2023/11/19 06:47:36;;;;;;;;;;;;;;;-0.25;83.74;101324.08;106829;1259;61224;-86
2023/11/19 06:50:05;;;;;;;;;;;;;;;-0.24;83.70;101317.23;106750;1257;74588;-85
2023/11/19 06:52:32;;;;;;;;;;;;;;;-0.20;83.71;101315.30;106570;1257;124518;-84
2023/11/19 06:54:58;;;;;;;;;;;;;;;-0.18;83.77;101306.46;106746;1258;72710;-84
2023/11/19 06:57:25;;;;;;;;;;;;;;;-0.14;83.89;101302.66;106553;1262;124880;-84
2023/11/19 06:59:52;;;;;;;;;;;;;;;-0.08;83.78;101301.67;106725;1259;61130;-84
2023/11/19 07:02:18;;;;;;;;;;;;;;;-0.00;84.17;101299.70;106565;1257;125090;-85
2023/11/19 07:04:45;;;;;;;;;;;;;;;0.07;84.10;101294.94;106626;1257;64932;-88
2023/11/19 07:07:11;;;;;;;;;;;;;;;0.14;83.98;101284.56;106806;1259;71505;-86
2023/11/19 07:09:38;;;;;;;;;;;;;;;0.21;84.15;101282.88;106240;1255;125432;-86
2023/11/19 07:12:05;;;;;;;;;;;;;;;0.28;83.83;101277.86;106171;1260;61309;-84
2023/11/19 07:14:31;;;;;;;;;;;;;;;0.34;83.91;101278.48;106572;1257;124592;-84
2023/11/19 07:17:00;;;;;;;;;;;;;;;0.43;83.98;101280.48;106619;1257;64992;-85
2023/11/19 07:19:26;;;;;;;;;;;;;;;0.51;83.96;101281.09;106689;1257;72488;-87
2023/11/19 07:21:54;;;;;;;;;;;;;;;0.57;83.74;101270.34;106393;1257;124480;-86
2023/11/19 07:24:21;;;;;;;;;;;;;;;0.65;83.81;101262.94;106666;1257;61055;-87
2023/11/19 07:26:48;;;;;;;;;;;;;;;0.74;83.86;101261.36;106668;1257;124591;-85
2023/11/19 07:29:17;;;;;;;;;;;;;;;0.84;83.60;101262.06;106092;1257;65141;-85
2023/11/19 07:31:44;;;;;;;;;;;;;;;0.94;83.59;101261.75;106667;1257;72700;-84
2023/11/19 07:34:11;;;;;;;;;;;;;;;1.02;83.60;101259.92;106389;1255;124564;-84
2023/11/19 07:36:39;;;;;;;;;;;;;;;1.09;83.42;101259.05;106641;1257;61170;-84
2023/11/19 07:39:06;;;;;;;;;;;;;;;1.16;83.41;101252.09;106543;1260;123865;-84
2023/11/19 07:41:33;;;;;;;;;;;;;;;1.22;83.17;101249.21;106666;1257;64203;-81
2023/11/19 07:44:00;;;;;;;;;;;;;;;1.27;83.05;101245.08;106480;1260;71461;-80
2023/11/19 07:46:27;;;;;;;;;;;;;;;1.32;82.81;101236.76;106537;1257;123829;-78
2023/11/19 07:48:53;;;;;;;;;;;;;;;1.37;82.80;101227.46;106515;1260;62819;-77
2023/11/19 07:51:20;;;;;;;;;;;;;;;1.40;82.66;101223.52;106541;1257;123842;-79
2023/11/19 07:53:47;;;;;;;;;;;;;;;1.43;82.53;101221.23;106629;1258;64854;-81
2023/11/19 07:56:13;;;;;;;;;;;;;;;1.46;82.45;101218.36;106597;1254;124853;-80
2023/11/19 07:58:40;;;;;;;;;;;;;;;1.49;82.29;101219.11;106683;1256;61294;-81
2023/11/19 08:01:07;;;;;;;;;;;;;;;1.51;82.26;101215.05;106700;1259;61343;-80
2023/11/19 08:03:34;;;;;;;;;;;;;;;1.56;82.29;101210.90;106503;1258;124521;-80
2023/11/19 08:06:01;;;;;;;;;;;;;;;1.63;82.21;101206.40;106610;1259;68046;-80
2023/11/19 08:08:29;;;;;;;;;;;;;;;1.70;82.20;101198.05;106545;1256;125135;-78
2023/11/19 08:10:56;;;;;;;;;;;;;;;1.74;81.84;101193.64;106736;1259;61365;-80
2023/11/19 08:13:23;;;;;;;;;;;;;;;1.75;81.74;101187.86;106671;1257;59590;-79
2023/11/19 08:15:50;;;;;;;;;;;;;;;1.84;81.88;101192.38;106705;1257;124634;-79
2023/11/19 08:18:18;;;;;;;;;;;;;;;1.89;81.79;101191.72;106616;1257;65568;-79
2023/11/19 08:20:45;;;;;;;;;;;;;;;1.98;81.70;101189.17;106464;1270;124862;-79
2023/11/19 08:23:13;;;;;;;;;;;;;;;2.08;81.61;101184.11;106598;1257;60005;-78
2023/11/19 08:25:39;;;;;;;;;;;;;;;2.19;81.75;101184.14;106515;1257;59578;-77
2023/11/19 08:28:06;;;;;;;;;;;;;;;2.29;81.59;101178.56;106515;1260;124555;-78
2023/11/19 08:30:33;;;;;;;;;;;;;;;2.37;81.33;101172.70;106731;1258;66384;-78
2023/11/19 08:33:02;;;;;;;;;;;;;;;2.43;81.26;101171.32;106552;1257;124683;-77
2023/11/19 08:35:29;;;;;;;;;;;;;;;2.50;81.17;101166.98;106783;1258;61218;-77
2023/11/19 08:37:57;;;;;;;;;;;;;;;2.59;81.17;101158.46;106816;1260;61257;-77
2023/11/19 08:40:23;;;;;;;;;;;;;;;2.67;80.99;101151.92;105982;1257;123912;-77
2023/11/19 08:42:50;;;;;;;;;;;;;;;2.74;80.99;101144.02;106121;1260;66014;-75
2023/11/19 08:45:17;;;;;;;;;;;;;;;2.75;80.55;101133.83;106045;1255;124435;-75
2023/11/19 08:47:45;;;;;;;;;;;;;;;2.71;80.47;101123.22;106224;1258;61282;-76
2023/11/19 08:50:11;;;;;;;;;;;;;;;2.71;80.42;101116.97;106003;1259;61282;-76
2023/11/19 08:52:38;;;;;;;;;;;;;;;2.73;80.44;101111.73;105907;1256;74265;-77
2023/11/19 08:55:05;;;;;;;;;;;;;;;2.75;80.19;101107.17;106035;1255;65160;-77
2023/11/19 08:57:35;;;;;;;;;;;;;;;2.76;80.11;101107.73;106591;1254;124135;-78
2023/11/19 09:00:02;;;;;;;;;;;;;;;2.77;80.17;101112.81;106743;1260;61295;-78
2023/11/19 09:02:29;;;;;;;;;;;;;;;2.78;80.19;101111.33;106660;1254;124174;-77
2023/11/19 09:04:56;;;;;;;;;;;;;;;2.79;80.18;101102.73;106769;1257;74013;-78
2023/11/19 09:07:23;;;;;;;;;;;;;;;2.78;79.84;101099.54;106859;1259;65977;-77
2023/11/19 09:09:50;;;;;;;;;;;;;;;2.71;79.71;101096.70;106694;1254;126967;-78
2023/11/19 09:12:17;;;;;;;;;;;;;;;2.71;79.70;101097.20;106832;1254;61239;-77
2023/11/19 09:14:43;;;;;;;;;;;;;;;2.72;79.78;101092.79;106621;1261;124818;-78
2023/11/19 09:17:10;;;;;;;;;;;;;;;2.69;79.58;101088.61;106773;1254;74460;-77
2023/11/19 09:19:37;;;;;;;;;;;;;;;2.66;79.50;101088.61;106728;1258;66472;-78
2023/11/19 09:22:03;;;;;;;;;;;;;;;2.67;79.37;101085.01;106504;1254;173791;-78
2023/11/19 09:24:30;;;;;;;;;;;;;;;2.70;79.52;101084.49;106690;1257;61160;-78
2023/11/19 09:26:57;;;;;;;;;;;;;;;2.74;79.60;101077.31;106686;1254;124805;-78
2023/11/19 09:29:24;;;;;;;;;;;;;;;2.80;79.43;101076.62;106738;1258;74466;-84
2023/11/19 09:31:50;;;;;;;;;;;;;;;2.85;79.37;101068.59;106654;1257;66399;-82
2023/11/19 09:34:17;;;;;;;;;;;;;;;2.88;79.19;101061.84;106498;1257;123226;-79
2023/11/19 09:36:44;;;;;;;;;;;;;;;2.91;79.22;101055.10;106429;1256;59600;-80
2023/11/19 09:39:12;;;;;;;;;;;;;;;2.96;79.17;101051.77;106519;1255;123790;-81
2023/11/19 09:41:39;;;;;;;;;;;;;;;3.00;79.12;101050.93;106677;1258;74685;-83
2023/11/19 09:44:06;;;;;;;;;;;;;;;3.03;78.97;101046.98;106644;1259;66006;-83
2023/11/19 09:46:33;;;;;;;;;;;;;;;3.03;78.75;101043.67;106643;1258;123699;-83
2023/11/19 09:49:00;;;;;;;;;;;;;;;3.02;78.72;101038.75;106657;1260;61294;-84
2023/11/19 09:51:26;;;;;;;;;;;;;;;3.02;78.64;101033.59;106542;1259;124262;-84
2023/11/19 09:53:53;;;;;;;;;;;;;;;3.00;78.60;101033.13;106722;1259;73265;-83
2023/11/19 09:56:20;;;;;;;;;;;;;;;3.03;78.74;101028.94;106905;1257;124731;-82
2023/11/19 09:58:46;;;;;;;;;;;;;;;3.04;78.43;101026.09;106879;1257;70895;-80
2023/11/19 10:01:13;;;;;;;;;;;;;;;3.04;78.42;101026.26;107073;1257;60797;-89
2023/11/19 10:03:40;;;;;;;;;;;;;;;3.02;78.25;101024.73;106564;1255;124443;-83
2023/11/19 10:06:07;;;;;;;;;;;;;;;2.99;78.34;101013.81;107009;1256;73079;-84
2023/11/19 10:08:34;;;;;;;;;;;;;;;3.02;78.30;101009.45;106845;1256;125374;-83
2023/11/19 10:11:00;;;;;;;;;;;;;;;3.03;78.38;101004.84;106768;1257;72751;-85
2023/11/19 10:13:30;;;;;;;;;;;;;;;3.05;78.37;101002.17;106598;1256;61253;-87
2023/11/19 10:15:59;;;;;;;;;;;;;;;3.04;78.16;100997.98;106683;1256;124453;-84
2023/11/19 10:18:26;;;;;;;;;;;;;;;3.02;78.10;100996.30;106722;1257;74666;-84
2023/11/19 10:20:54;;;;;;;;;;;;;;;3.01;78.02;100989.66;106500;1257;124201;-84
2023/11/19 10:23:21;;;;;;;;;;;;;;;3.07;78.19;100979.77;106640;1257;71705;-83
2023/11/19 10:25:48;;;;;;;;;;;;;;;3.12;78.16;100969.50;106510;1256;61211;-83
2023/11/19 10:28:16;;;;;;;;;;;;;;;3.18;78.22;100965.67;106727;1259;123965;-83
2023/11/19 10:30:42;;;;;;;;;;;;;;;3.21;78.14;100956.14;106443;1260;73376;-83
2023/11/19 10:33:10;;;;;;;;;;;;;;;3.25;78.21;100949.64;106545;1257;124317;-83
2023/11/19 10:35:53;;;;;;;;;;;;;;;3.34;78.14;100942.86;106708;1256;70315;-83
2023/11/19 10:38:21;;;;;;;;;;;;;;;3.41;77.88;100933.67;106589;1258;124028;-83
2023/11/19 10:40:49;;;;;;;;;;;;;;;3.48;78.02;100932.70;106759;1257;61267;-83
2023/11/19 10:43:16;;;;;;;;;;;;;;;3.52;77.88;100923.72;106673;1254;74705;-83
2023/11/19 10:45:42;;;;;;;;;;;;;;;3.53;77.70;100917.85;106595;1255;123995;-83
2023/11/19 10:48:09;;;;;;;;;;;;;;;3.54;77.55;100913.90;106694;1254;71610;-84
2023/11/19 10:50:37;;;;;;;;;;;;;;;3.57;77.59;100909.22;106280;1257;124398;-84
2023/11/19 10:53:04;;;;;;;;;;;;;;;3.56;77.40;100906.42;106522;1256;59930;-83
2023/11/19 10:55:31;;;;;;;;;;;;;;;3.56;77.30;100906.59;106689;1256;74406;-84
2023/11/19 10:58:05;;;;;;;;;;;;;;;3.55;77.13;100903.23;106685;1257;125081;-84
2023/11/19 11:00:45;;;;;;;;;;;;;;;3.54;77.33;100899.53;106517;1256;72528;-85
2023/11/19 11:03:18;;;;;;;;;;;;;;;3.49;77.12;100898.04;106436;1255;124878;-84
2023/11/19 11:05:49;;;;;;;;;;;;;;;3.50;77.35;100893.56;106625;1259;61153;-83
2023/11/19 11:08:16;;;;;;;;;;;;;;;3.58;77.59;100881.52;106293;1256;124629;-83
2023/11/19 11:10:44;;;;;;;;;;;;;;;3.65;77.43;100878.95;106583;1257;66064;-84
2023/11/19 11:13:12;;;;;;;;;;;;;;;3.74;77.39;100877.55;106698;1259;71349;-88
2023/11/19 11:15:39;;;;;;;;;;;;;;;3.79;77.34;100871.21;106525;1257;124800;-84
2023/11/19 11:18:05;;;;;;;;;;;;;;;3.80;77.20;100866.09;106796;1254;61101;-83
2023/11/19 11:20:33;;;;;;;;;;;;;;;3.78;77.04;100861.44;106659;1254;124298;-84
2023/11/19 11:23:12;;;;;;;;;;;;;;;3.73;76.96;100855.48;106631;1256;66272;-84
2023/11/19 11:25:58;;;;;;;;;;;;;;;3.68;76.83;100846.19;106711;1254;72626;-84
2023/11/19 11:28:28;;;;;;;;;;;;;;;3.62;76.61;100842.41;106684;1256;123722;-84
2023/11/19 11:31:09;;;;;;;;;;;;;;;3.59;76.75;100834.91;106764;1253;61219;-84
2023/11/19 11:33:38;;;;;;;;;;;;;;;3.54;76.79;100832.20;106601;1256;123724;-84
2023/11/19 11:36:12;;;;;;;;;;;;;;;3.51;76.88;100827.36;106656;1256;64948;-84
2023/11/19 11:38:39;;;;;;;;;;;;;;;3.51;76.95;100824.93;106461;1256;124522;-84
2023/11/19 11:41:22;;;;;;;;;;;;;;;3.47;76.91;100822.81;106692;1254;61565;-84
2023/11/19 11:43:55;;;;;;;;;;;;;;;3.44;76.82;100820.20;106732;1259;61139;-84
2023/11/19 11:46:37;;;;;;;;;;;;;;;3.43;77.12;100812.71;106992;1256;124850;-84
2023/11/19 11:49:04;;;;;;;;;;;;;;;3.41;76.92;100810.52;106623;1259;64114;-83
2023/11/19 11:51:43;;;;;;;;;;;;;;;3.36;77.06;100807.98;106447;1259;124751;-82
2023/11/19 11:54:10;;;;;;;;;;;;;;;3.35;77.25;100809.48;106825;1254;59584;-82
2023/11/19 11:56:37;;;;;;;;;;;;;;;3.32;77.15;100807.41;106634;1258;125140;-83
2023/11/19 11:59:07;;;;;;;;;;;;;;;3.26;77.22;100802.92;106655;1258;74679;-83
2023/11/19 12:01:35;;;;;;;;;;;;;;;3.26;77.37;100800.20;106568;1261;64984;-85
2023/11/19 12:04:02;;;;;;;;;;;;;;;3.27;77.54;100796.25;106584;1257;124707;-84
2023/11/19 12:06:29;;;;;;;;;;;;;;;3.25;77.45;100790.37;106618;1256;61393;-83
2023/11/19 12:09:02;;;;;;;;;;;;;;;3.26;77.58;100782.48;106497;1254;124789;-82
2023/11/19 12:11:32;;;;;;;;;;;;;;;3.28;77.69;100772.16;106514;1262;74852;-82
2023/11/19 12:14:02;;;;;;;;;;;;;;;3.30;77.76;100772.99;106543;1257;65737;-81
2023/11/19 12:16:30;;;;;;;;;;;;;;;3.34;77.64;100763.84;106438;1256;123831;-82
2023/11/19 12:18:57;;;;;;;;;;;;;;;3.32;77.73;100759.54;106561;1257;61330;-82
2023/11/19 12:21:29;;;;;;;;;;;;;;;3.34;77.92;100758.11;106501;1254;124985;-82
2023/11/19 12:23:56;;;;;;;;;;;;;;;3.33;77.84;100752.50;106686;1257;74684;-82
2023/11/19 12:26:32;;;;;;;;;;;;;;;3.31;77.91;100747.36;106629;1255;124219;-82
2023/11/19 12:28:59;;;;;;;;;;;;;;;3.29;77.85;100737.54;106810;1254;72410;-82
2023/11/19 12:31:26;;;;;;;;;;;;;;;3.25;77.99;100735.79;106538;1256;61378;-81
2023/11/19 12:33:53;;;;;;;;;;;;;;;3.16;77.80;100736.84;106642;1256;124195;-82